sensor_id;sensor_type;location;lat;lon;timestamp;P1;durP1;ratioP1;P2;durP2;ratioP2
57325;SDS011;43161;50.950;18.224;2022-10-31T00:01:17;64.90;;;30.20;;
57325;SDS011;43161;50.950;18.224;2022-10-31T00:03:44;59.50;;;29.10;;
57325;SDS011;43161;50.950;18.224;2022-10-31T00:06:10;56.80;;;28.50;;
57325;SDS011;43161;50.950;18.224;2022-10-31T00:08:35;63.70;;;29.60;;
57325;SDS011;43161;50.950;18.224;2022-10-31T00:11:01;59.20;;;28.10;;
57325;SDS011;43161;50.950;18.224;2022-10-31T00:13:27;56.20;;;28.80;;
57325;SDS011;43161;50.950;18.224;2022-10-31T00:15:53;65.70;;;29.90;;
57325;SDS011;43161;50.950;18.224;2022-10-31T00:18:18;65.80;;;31.80;;
57325;SDS011;43161;50.950;18.224;2022-10-31T00:20:44;61.90;;;30.30;;
57325;SDS011;43161;50.950;18.224;2022-10-31T00:23:10;70.50;;;30.80;;
57325;SDS011;43161;50.950;18.224;2022-10-31T00:25:37;82.40;;;35.40;;
57325;SDS011;43161;50.950;18.224;2022-10-31T00:28:04;80.90;;;33.40;;
57325;SDS011;43161;50.950;18.224;2022-10-31T00:30:31;80.40;;;35.50;;
57325;SDS011;43161;50.950;18.224;2022-10-31T00:32:57;81.80;;;33.80;;
57325;SDS011;43161;50.950;18.224;2022-10-31T00:35:23;88.70;;;37.60;;
57325;SDS011;43161;50.950;18.224;2022-10-31T00:37:48;83.30;;;36.50;;
57325;SDS011;43161;50.950;18.224;2022-10-31T00:40:14;81.90;;;36.60;;
57325;SDS011;43161;50.950;18.224;2022-10-31T00:42:40;82.40;;;35.20;;
57325;SDS011;43161;50.950;18.224;2022-10-31T00:45:09;75.80;;;34.00;;
57325;SDS011;43161;50.950;18.224;2022-10-31T00:47:36;69.30;;;33.10;;
57325;SDS011;43161;50.950;18.224;2022-10-31T00:50:02;73.90;;;32.80;;
57325;SDS011;43161;50.950;18.224;2022-10-31T00:52:29;69.20;;;32.00;;
57325;SDS011;43161;50.950;18.224;2022-10-31T00:54:54;70.50;;;34.80;;
57325;SDS011;43161;50.950;18.224;2022-10-31T00:57:19;71.00;;;31.50;;
57325;SDS011;43161;50.950;18.224;2022-10-31T00:59:45;68.50;;;31.50;;
57325;SDS011;43161;50.950;18.224;2022-10-31T01:02:11;65.40;;;30.80;;
57325;SDS011;43161;50.950;18.224;2022-10-31T01:04:36;64.20;;;31.70;;
57325;SDS011;43161;50.950;18.224;2022-10-31T01:07:01;62.00;;;31.30;;
57325;SDS011;43161;50.950;18.224;2022-10-31T01:09:27;60.60;;;30.00;;
57325;SDS011;43161;50.950;18.224;2022-10-31T01:11:52;64.70;;;31.00;;
57325;SDS011;43161;50.950;18.224;2022-10-31T01:14:18;57.60;;;28.00;;
57325;SDS011;43161;50.950;18.224;2022-10-31T01:16:44;57.90;;;28.30;;
57325;SDS011;43161;50.950;18.224;2022-10-31T01:19:09;60.30;;;28.30;;
57325;SDS011;43161;50.950;18.224;2022-10-31T01:21:35;59.90;;;29.80;;
57325;SDS011;43161;50.950;18.224;2022-10-31T01:24:01;57.90;;;31.30;;
57325;SDS011;43161;50.950;18.224;2022-10-31T01:26:30;63.60;;;32.30;;
57325;SDS011;43161;50.950;18.224;2022-10-31T01:28:57;59.80;;;31.50;;
57325;SDS011;43161;50.950;18.224;2022-10-31T01:31:29;57.00;;;29.80;;
57325;SDS011;43161;50.950;18.224;2022-10-31T01:33:57;59.60;;;29.20;;
57325;SDS011;43161;50.950;18.224;2022-10-31T01:36:24;60.20;;;29.80;;
57325;SDS011;43161;50.950;18.224;2022-10-31T01:38:52;63.80;;;29.90;;
57325;SDS011;43161;50.950;18.224;2022-10-31T01:41:20;58.10;;;29.20;;
57325;SDS011;43161;50.950;18.224;2022-10-31T01:43:55;58.90;;;27.80;;
57325;SDS011;43161;50.950;18.224;2022-10-31T01:46:24;56.40;;;27.50;;
57325;SDS011;43161;50.950;18.224;2022-10-31T01:48:59;61.70;;;29.40;;
57325;SDS011;43161;50.950;18.224;2022-10-31T01:51:28;54.20;;;27.10;;
57325;SDS011;43161;50.950;18.224;2022-10-31T01:53:57;52.10;;;27.60;;
57325;SDS011;43161;50.950;18.224;2022-10-31T01:56:24;49.90;;;25.10;;
57325;SDS011;43161;50.950;18.224;2022-10-31T01:58:50;50.00;;;23.90;;
57325;SDS011;43161;50.950;18.224;2022-10-31T02:01:16;52.40;;;24.30;;
57325;SDS011;43161;50.950;18.224;2022-10-31T02:03:43;53.20;;;25.90;;
57325;SDS011;43161;50.950;18.224;2022-10-31T02:06:10;48.90;;;24.80;;
57325;SDS011;43161;50.950;18.224;2022-10-31T02:08:41;46.60;;;23.80;;
57325;SDS011;43161;50.950;18.224;2022-10-31T02:11:07;48.50;;;24.00;;
57325;SDS011;43161;50.950;18.224;2022-10-31T02:13:33;51.40;;;26.80;;
57325;SDS011;43161;50.950;18.224;2022-10-31T02:16:00;50.30;;;24.60;;
57325;SDS011;43161;50.950;18.224;2022-10-31T02:18:27;50.60;;;26.60;;
57325;SDS011;43161;50.950;18.224;2022-10-31T02:26:20;59.00;;;27.20;;
57325;SDS011;43161;50.950;18.224;2022-10-31T02:43:22;61.50;;;29.80;;
57325;SDS011;43161;50.950;18.224;2022-10-31T02:46:14;56.60;;;28.50;;
57325;SDS011;43161;50.950;18.224;2022-10-31T02:48:48;55.80;;;27.70;;
57325;SDS011;43161;50.950;18.224;2022-10-31T02:51:17;62.50;;;27.10;;
57325;SDS011;43161;50.950;18.224;2022-10-31T02:53:42;60.30;;;28.50;;
57325;SDS011;43161;50.950;18.224;2022-10-31T02:58:38;58.50;;;29.00;;
57325;SDS011;43161;50.950;18.224;2022-10-31T03:07:08;63.40;;;29.10;;
57325;SDS011;43161;50.950;18.224;2022-10-31T03:12:28;62.50;;;32.80;;
57325;SDS011;43161;50.950;18.224;2022-10-31T03:17:48;63.80;;;31.70;;
57325;SDS011;43161;50.950;18.224;2022-10-31T03:20:19;60.70;;;29.30;;
57325;SDS011;43161;50.950;18.224;2022-10-31T03:22:46;62.20;;;29.20;;
57325;SDS011;43161;50.950;18.224;2022-10-31T03:25:12;56.20;;;27.70;;
57325;SDS011;43161;50.950;18.224;2022-10-31T03:27:38;58.20;;;28.80;;
57325;SDS011;43161;50.950;18.224;2022-10-31T03:30:05;63.40;;;29.20;;
57325;SDS011;43161;50.950;18.224;2022-10-31T03:32:38;61.00;;;29.40;;
57325;SDS011;43161;50.950;18.224;2022-10-31T03:35:07;62.00;;;27.80;;
57325;SDS011;43161;50.950;18.224;2022-10-31T03:37:34;61.50;;;30.40;;
57325;SDS011;43161;50.950;18.224;2022-10-31T03:40:00;61.40;;;29.30;;
57325;SDS011;43161;50.950;18.224;2022-10-31T03:42:29;57.70;;;29.80;;
57325;SDS011;43161;50.950;18.224;2022-10-31T03:45:03;64.10;;;29.80;;
57325;SDS011;43161;50.950;18.224;2022-10-31T03:47:32;57.70;;;27.80;;
57325;SDS011;43161;50.950;18.224;2022-10-31T03:49:59;55.70;;;27.70;;
57325;SDS011;43161;50.950;18.224;2022-10-31T03:55:30;56.30;;;28.30;;
57325;SDS011;43161;50.950;18.224;2022-10-31T04:00:43;71.30;;;34.70;;
57325;SDS011;43161;50.950;18.224;2022-10-31T04:03:11;71.90;;;32.30;;
57325;SDS011;43161;50.950;18.224;2022-10-31T04:05:39;67.50;;;32.50;;
57325;SDS011;43161;50.950;18.224;2022-10-31T04:08:07;67.90;;;32.30;;
57325;SDS011;43161;50.950;18.224;2022-10-31T04:10:34;71.40;;;33.20;;
57325;SDS011;43161;50.950;18.224;2022-10-31T04:13:06;67.40;;;33.10;;
57325;SDS011;43161;50.950;18.224;2022-10-31T04:15:35;73.90;;;35.00;;
57325;SDS011;43161;50.950;18.224;2022-10-31T04:18:01;73.00;;;34.20;;
57325;SDS011;43161;50.950;18.224;2022-10-31T04:20:32;77.10;;;34.70;;
57325;SDS011;43161;50.950;18.224;2022-10-31T04:22:59;73.20;;;36.00;;
57325;SDS011;43161;50.950;18.224;2022-10-31T04:25:25;74.00;;;35.20;;
57325;SDS011;43161;50.950;18.224;2022-10-31T04:27:51;69.90;;;35.60;;
57325;SDS011;43161;50.950;18.224;2022-10-31T04:30:16;77.50;;;37.60;;
57325;SDS011;43161;50.950;18.224;2022-10-31T04:32:42;78.60;;;38.20;;
57325;SDS011;43161;50.950;18.224;2022-10-31T04:35:08;79.50;;;36.70;;
57325;SDS011;43161;50.950;18.224;2022-10-31T04:37:34;80.70;;;39.40;;
57325;SDS011;43161;50.950;18.224;2022-10-31T04:39:59;83.70;;;39.60;;
57325;SDS011;43161;50.950;18.224;2022-10-31T04:42:25;74.50;;;37.50;;
57325;SDS011;43161;50.950;18.224;2022-10-31T04:44:52;73.10;;;38.80;;
57325;SDS011;43161;50.950;18.224;2022-10-31T04:47:17;73.60;;;34.00;;
57325;SDS011;43161;50.950;18.224;2022-10-31T04:49:43;67.30;;;32.30;;
57325;SDS011;43161;50.950;18.224;2022-10-31T04:52:09;73.80;;;32.80;;
57325;SDS011;43161;50.950;18.224;2022-10-31T04:54:34;72.80;;;33.40;;
57325;SDS011;43161;50.950;18.224;2022-10-31T04:57:00;70.70;;;32.70;;
57325;SDS011;43161;50.950;18.224;2022-10-31T04:59:26;67.90;;;32.40;;
57325;SDS011;43161;50.950;18.224;2022-10-31T05:01:51;73.90;;;34.00;;
57325;SDS011;43161;50.950;18.224;2022-10-31T05:04:17;65.20;;;32.10;;
57325;SDS011;43161;50.950;18.224;2022-10-31T05:06:42;71.50;;;31.80;;
57325;SDS011;43161;50.950;18.224;2022-10-31T05:09:08;67.60;;;31.50;;
57325;SDS011;43161;50.950;18.224;2022-10-31T05:11:33;64.10;;;30.00;;
57325;SDS011;43161;50.950;18.224;2022-10-31T05:13:59;65.60;;;31.40;;
57325;SDS011;43161;50.950;18.224;2022-10-31T05:16:25;60.70;;;29.20;;
57325;SDS011;43161;50.950;18.224;2022-10-31T05:18:50;58.70;;;29.30;;
57325;SDS011;43161;50.950;18.224;2022-10-31T05:21:15;60.30;;;28.60;;
57325;SDS011;43161;50.950;18.224;2022-10-31T05:23:41;61.30;;;30.90;;
57325;SDS011;43161;50.950;18.224;2022-10-31T05:26:06;59.20;;;28.80;;
57325;SDS011;43161;50.950;18.224;2022-10-31T05:28:32;63.40;;;31.50;;
57325;SDS011;43161;50.950;18.224;2022-10-31T05:30:58;69.90;;;33.00;;
57325;SDS011;43161;50.950;18.224;2022-10-31T05:33:23;70.10;;;33.30;;
57325;SDS011;43161;50.950;18.224;2022-10-31T05:35:49;73.60;;;34.30;;
57325;SDS011;43161;50.950;18.224;2022-10-31T05:38:14;78.20;;;34.60;;
57325;SDS011;43161;50.950;18.224;2022-10-31T05:40:40;77.80;;;36.10;;
57325;SDS011;43161;50.950;18.224;2022-10-31T05:43:05;68.90;;;33.90;;
57325;SDS011;43161;50.950;18.224;2022-10-31T05:45:30;66.90;;;31.60;;
57325;SDS011;43161;50.950;18.224;2022-10-31T05:47:57;69.30;;;34.50;;
57325;SDS011;43161;50.950;18.224;2022-10-31T05:50:24;70.70;;;33.00;;
57325;SDS011;43161;50.950;18.224;2022-10-31T05:55:34;58.70;;;28.70;;
57325;SDS011;43161;50.950;18.224;2022-10-31T05:58:00;61.80;;;29.50;;
57325;SDS011;43161;50.950;18.224;2022-10-31T06:00:26;60.10;;;31.70;;
57325;SDS011;43161;50.950;18.224;2022-10-31T06:02:58;63.30;;;31.60;;
57325;SDS011;43161;50.950;18.224;2022-10-31T06:05:25;79.30;;;38.70;;
57325;SDS011;43161;50.950;18.224;2022-10-31T06:07:51;64.40;;;34.00;;
57325;SDS011;43161;50.950;18.224;2022-10-31T06:10:17;56.60;;;28.30;;
57325;SDS011;43161;50.950;18.224;2022-10-31T06:12:44;56.50;;;28.80;;
57325;SDS011;43161;50.950;18.224;2022-10-31T06:15:09;57.80;;;28.60;;
57325;SDS011;43161;50.950;18.224;2022-10-31T06:17:35;57.00;;;29.30;;
57325;SDS011;43161;50.950;18.224;2022-10-31T06:20:01;55.70;;;29.10;;
57325;SDS011;43161;50.950;18.224;2022-10-31T06:22:27;59.30;;;28.90;;
57325;SDS011;43161;50.950;18.224;2022-10-31T06:24:53;53.30;;;30.60;;
57325;SDS011;43161;50.950;18.224;2022-10-31T06:27:18;55.00;;;30.30;;
57325;SDS011;43161;50.950;18.224;2022-10-31T06:29:44;58.50;;;31.70;;
57325;SDS011;43161;50.950;18.224;2022-10-31T06:32:11;59.30;;;31.10;;
57325;SDS011;43161;50.950;18.224;2022-10-31T06:34:37;60.50;;;31.30;;
57325;SDS011;43161;50.950;18.224;2022-10-31T06:37:05;55.10;;;29.40;;
57325;SDS011;43161;50.950;18.224;2022-10-31T06:39:33;55.30;;;30.60;;
57325;SDS011;43161;50.950;18.224;2022-10-31T06:41:59;54.50;;;30.00;;
57325;SDS011;43161;50.950;18.224;2022-10-31T06:44:24;60.10;;;28.70;;
57325;SDS011;43161;50.950;18.224;2022-10-31T06:46:50;60.80;;;30.70;;
57325;SDS011;43161;50.950;18.224;2022-10-31T06:49:16;63.90;;;31.20;;
57325;SDS011;43161;50.950;18.224;2022-10-31T06:51:42;62.70;;;31.30;;
57325;SDS011;43161;50.950;18.224;2022-10-31T06:54:07;61.50;;;31.90;;
57325;SDS011;43161;50.950;18.224;2022-10-31T06:56:34;64.40;;;32.80;;
57325;SDS011;43161;50.950;18.224;2022-10-31T06:58:59;61.20;;;32.60;;
57325;SDS011;43161;50.950;18.224;2022-10-31T07:01:25;65.10;;;31.60;;
57325;SDS011;43161;50.950;18.224;2022-10-31T07:03:51;60.20;;;30.70;;
57325;SDS011;43161;50.950;18.224;2022-10-31T07:06:17;56.80;;;28.60;;
57325;SDS011;43161;50.950;18.224;2022-10-31T07:08:42;52.40;;;28.30;;
57325;SDS011;43161;50.950;18.224;2022-10-31T07:11:08;50.00;;;26.70;;
57325;SDS011;43161;50.950;18.224;2022-10-31T07:13:33;54.40;;;26.80;;
57325;SDS011;43161;50.950;18.224;2022-10-31T07:15:59;48.50;;;26.40;;
57325;SDS011;43161;50.950;18.224;2022-10-31T07:18:27;53.60;;;27.30;;
57325;SDS011;43161;50.950;18.224;2022-10-31T07:20:52;54.40;;;29.10;;
57325;SDS011;43161;50.950;18.224;2022-10-31T07:23:18;57.20;;;29.30;;
57325;SDS011;43161;50.950;18.224;2022-10-31T07:25:44;57.70;;;27.70;;
57325;SDS011;43161;50.950;18.224;2022-10-31T07:28:10;51.50;;;25.00;;
57325;SDS011;43161;50.950;18.224;2022-10-31T07:30:36;50.00;;;26.20;;
57325;SDS011;43161;50.950;18.224;2022-10-31T07:33:02;48.10;;;26.60;;
57325;SDS011;43161;50.950;18.224;2022-10-31T07:35:29;47.90;;;24.90;;
57325;SDS011;43161;50.950;18.224;2022-10-31T07:37:55;47.50;;;25.20;;
57325;SDS011;43161;50.950;18.224;2022-10-31T07:40:21;45.50;;;25.60;;
57325;SDS011;43161;50.950;18.224;2022-10-31T07:42:48;49.20;;;25.40;;
57325;SDS011;43161;50.950;18.224;2022-10-31T07:45:17;52.40;;;25.90;;
57325;SDS011;43161;50.950;18.224;2022-10-31T07:47:45;50.40;;;26.30;;
57325;SDS011;43161;50.950;18.224;2022-10-31T07:50:16;46.80;;;23.70;;
57325;SDS011;43161;50.950;18.224;2022-10-31T07:52:43;45.70;;;24.20;;
57325;SDS011;43161;50.950;18.224;2022-10-31T07:55:09;45.20;;;25.20;;
57325;SDS011;43161;50.950;18.224;2022-10-31T07:57:34;45.20;;;25.40;;
57325;SDS011;43161;50.950;18.224;2022-10-31T08:00:05;46.90;;;24.10;;
57325;SDS011;43161;50.950;18.224;2022-10-31T08:02:34;42.70;;;22.90;;
57325;SDS011;43161;50.950;18.224;2022-10-31T08:05:00;42.10;;;24.30;;
57325;SDS011;43161;50.950;18.224;2022-10-31T08:07:27;45.10;;;24.30;;
57325;SDS011;43161;50.950;18.224;2022-10-31T08:09:54;41.80;;;23.20;;
57325;SDS011;43161;50.950;18.224;2022-10-31T08:12:20;41.80;;;23.90;;
57325;SDS011;43161;50.950;18.224;2022-10-31T08:14:46;41.90;;;22.00;;
57325;SDS011;43161;50.950;18.224;2022-10-31T08:17:11;42.00;;;22.00;;
57325;SDS011;43161;50.950;18.224;2022-10-31T08:19:37;40.10;;;21.80;;
57325;SDS011;43161;50.950;18.224;2022-10-31T08:22:02;43.00;;;20.40;;
57325;SDS011;43161;50.950;18.224;2022-10-31T08:24:28;40.20;;;22.30;;
57325;SDS011;43161;50.950;18.224;2022-10-31T08:26:54;36.00;;;19.40;;
57325;SDS011;43161;50.950;18.224;2022-10-31T08:29:19;36.70;;;20.00;;
57325;SDS011;43161;50.950;18.224;2022-10-31T08:31:45;36.40;;;19.90;;
57325;SDS011;43161;50.950;18.224;2022-10-31T08:34:10;35.20;;;18.80;;
57325;SDS011;43161;50.950;18.224;2022-10-31T08:36:36;35.00;;;17.70;;
57325;SDS011;43161;50.950;18.224;2022-10-31T08:39:01;41.90;;;19.40;;
57325;SDS011;43161;50.950;18.224;2022-10-31T08:41:27;39.60;;;18.10;;
57325;SDS011;43161;50.950;18.224;2022-10-31T08:43:53;33.80;;;16.20;;
57325;SDS011;43161;50.950;18.224;2022-10-31T08:46:19;34.00;;;17.60;;
57325;SDS011;43161;50.950;18.224;2022-10-31T08:48:46;31.30;;;15.90;;
57325;SDS011;43161;50.950;18.224;2022-10-31T08:51:13;32.70;;;16.20;;
57325;SDS011;43161;50.950;18.224;2022-10-31T08:53:38;34.70;;;16.70;;
57325;SDS011;43161;50.950;18.224;2022-10-31T08:56:04;36.30;;;17.80;;
57325;SDS011;43161;50.950;18.224;2022-10-31T08:58:30;33.70;;;15.70;;
57325;SDS011;43161;50.950;18.224;2022-10-31T09:00:58;35.40;;;16.20;;
57325;SDS011;43161;50.950;18.224;2022-10-31T09:03:25;31.00;;;15.50;;
57325;SDS011;43161;50.950;18.224;2022-10-31T09:05:57;30.30;;;14.70;;
57325;SDS011;43161;50.950;18.224;2022-10-31T09:08:24;28.00;;;15.00;;
57325;SDS011;43161;50.950;18.224;2022-10-31T09:10:50;29.90;;;13.40;;
57325;SDS011;43161;50.950;18.224;2022-10-31T09:13:18;28.60;;;12.90;;
57325;SDS011;43161;50.950;18.224;2022-10-31T09:15:45;27.10;;;12.00;;
57325;SDS011;43161;50.950;18.224;2022-10-31T09:18:12;27.10;;;12.40;;
57325;SDS011;43161;50.950;18.224;2022-10-31T09:20:39;24.90;;;13.00;;
57325;SDS011;43161;50.950;18.224;2022-10-31T09:23:10;28.90;;;12.20;;
57325;SDS011;43161;50.950;18.224;2022-10-31T09:25:37;24.60;;;12.10;;
57325;SDS011;43161;50.950;18.224;2022-10-31T09:28:04;24.90;;;12.00;;
57325;SDS011;43161;50.950;18.224;2022-10-31T09:30:31;23.10;;;11.40;;
57325;SDS011;43161;50.950;18.224;2022-10-31T09:32:58;22.50;;;10.40;;
57325;SDS011;43161;50.950;18.224;2022-10-31T09:35:28;23.30;;;10.40;;
57325;SDS011;43161;50.950;18.224;2022-10-31T09:37:58;22.00;;;9.20;;
57325;SDS011;43161;50.950;18.224;2022-10-31T09:40:28;23.90;;;10.20;;
57325;SDS011;43161;50.950;18.224;2022-10-31T09:51:12;22.70;;;8.60;;
57325;SDS011;43161;50.950;18.224;2022-10-31T09:53:42;20.90;;;8.30;;
57325;SDS011;43161;50.950;18.224;2022-10-31T09:56:28;21.60;;;8.40;;
57325;SDS011;43161;50.950;18.224;2022-10-31T09:58:57;20.60;;;9.30;;
57325;SDS011;43161;50.950;18.224;2022-10-31T10:01:30;22.40;;;8.30;;
57325;SDS011;43161;50.950;18.224;2022-10-31T10:04:27;19.70;;;8.10;;
57325;SDS011;43161;50.950;18.224;2022-10-31T10:07:17;18.10;;;7.90;;
57325;SDS011;43161;50.950;18.224;2022-10-31T10:09:47;19.10;;;8.00;;
57325;SDS011;43161;50.950;18.224;2022-10-31T10:12:16;20.20;;;7.80;;
57325;SDS011;43161;50.950;18.224;2022-10-31T10:14:49;20.30;;;8.10;;
57325;SDS011;43161;50.950;18.224;2022-10-31T10:23:47;20.40;;;8.00;;
57325;SDS011;43161;50.950;18.224;2022-10-31T10:26:22;19.30;;;8.60;;
57325;SDS011;43161;50.950;18.224;2022-10-31T10:28:54;22.00;;;7.60;;
57325;SDS011;43161;50.950;18.224;2022-10-31T10:31:34;18.70;;;7.60;;
57325;SDS011;43161;50.950;18.224;2022-10-31T10:36:38;19.10;;;7.90;;
57325;SDS011;43161;50.950;18.224;2022-10-31T10:41:50;19.50;;;7.80;;
57325;SDS011;43161;50.950;18.224;2022-10-31T10:44:38;18.80;;;8.10;;
57325;SDS011;43161;50.950;18.224;2022-10-31T10:47:24;17.60;;;7.30;;
57325;SDS011;43161;50.950;18.224;2022-10-31T10:50:16;19.50;;;7.70;;
57325;SDS011;43161;50.950;18.224;2022-10-31T10:58:40;21.20;;;8.90;;
57325;SDS011;43161;50.950;18.224;2022-10-31T11:01:14;22.70;;;7.70;;
57325;SDS011;43161;50.950;18.224;2022-10-31T11:03:40;18.30;;;8.10;;
57325;SDS011;43161;50.950;18.224;2022-10-31T11:06:15;19.40;;;7.10;;
57325;SDS011;43161;50.950;18.224;2022-10-31T11:08:47;19.40;;;7.00;;
57325;SDS011;43161;50.950;18.224;2022-10-31T11:13:42;19.80;;;7.50;;
57325;SDS011;43161;50.950;18.224;2022-10-31T11:16:27;17.90;;;7.40;;
57325;SDS011;43161;50.950;18.224;2022-10-31T11:19:04;19.10;;;7.50;;
57325;SDS011;43161;50.950;18.224;2022-10-31T11:21:32;17.10;;;7.30;;
57325;SDS011;43161;50.950;18.224;2022-10-31T11:24:08;19.60;;;7.30;;
57325;SDS011;43161;50.950;18.224;2022-10-31T11:26:40;22.20;;;8.00;;
57325;SDS011;43161;50.950;18.224;2022-10-31T11:29:12;19.40;;;7.60;;
57325;SDS011;43161;50.950;18.224;2022-10-31T11:31:51;19.70;;;6.90;;
57325;SDS011;43161;50.950;18.224;2022-10-31T11:39:45;16.80;;;7.10;;
57325;SDS011;43161;50.950;18.224;2022-10-31T11:42:19;16.40;;;7.20;;
57325;SDS011;43161;50.950;18.224;2022-10-31T11:44:46;18.90;;;8.90;;
57325;SDS011;43161;50.950;18.224;2022-10-31T11:47:13;18.00;;;6.90;;
57325;SDS011;43161;50.950;18.224;2022-10-31T11:49:41;19.90;;;7.10;;
57325;SDS011;43161;50.950;18.224;2022-10-31T11:52:12;17.60;;;6.90;;
57325;SDS011;43161;50.950;18.224;2022-10-31T11:57:27;17.00;;;6.70;;
57325;SDS011;43161;50.950;18.224;2022-10-31T11:59:58;19.80;;;7.00;;
57325;SDS011;43161;50.950;18.224;2022-10-31T12:02:25;18.30;;;6.40;;
57325;SDS011;43161;50.950;18.224;2022-10-31T12:05:01;16.30;;;6.10;;
57325;SDS011;43161;50.950;18.224;2022-10-31T12:07:31;17.00;;;6.10;;
57325;SDS011;43161;50.950;18.224;2022-10-31T12:09:56;18.10;;;6.40;;
57325;SDS011;43161;50.950;18.224;2022-10-31T12:17:44;15.70;;;6.30;;
57325;SDS011;43161;50.950;18.224;2022-10-31T12:22:42;17.00;;;5.80;;
57325;SDS011;43161;50.950;18.224;2022-10-31T12:52:54;17.40;;;5.60;;
57325;SDS011;43161;50.950;18.224;2022-10-31T12:58:35;15.40;;;5.40;;
57325;SDS011;43161;50.950;18.224;2022-10-31T13:03:57;15.80;;;5.30;;
57325;SDS011;43161;50.950;18.224;2022-10-31T13:06:34;13.00;;;4.90;;
57325;SDS011;43161;50.950;18.224;2022-10-31T13:09:05;17.90;;;5.10;;
57325;SDS011;43161;50.950;18.224;2022-10-31T13:14:26;16.80;;;5.10;;
57325;SDS011;43161;50.950;18.224;2022-10-31T13:16:55;17.20;;;5.00;;
57325;SDS011;43161;50.950;18.224;2022-10-31T13:27:47;16.70;;;5.10;;
57325;SDS011;43161;50.950;18.224;2022-10-31T13:30:17;16.20;;;4.60;;
57325;SDS011;43161;50.950;18.224;2022-10-31T13:32:46;17.10;;;4.70;;
57325;SDS011;43161;50.950;18.224;2022-10-31T13:36:08;15.20;;;4.70;;
57325;SDS011;43161;50.950;18.224;2022-10-31T13:38:31;17.50;;;5.40;;
57325;SDS011;43161;50.950;18.224;2022-10-31T13:44:11;16.10;;;5.30;;
57325;SDS011;43161;50.950;18.224;2022-10-31T13:46:40;16.50;;;5.10;;
57325;SDS011;43161;50.950;18.224;2022-10-31T13:54:39;17.00;;;5.00;;
57325;SDS011;43161;50.950;18.224;2022-10-31T13:59:53;16.80;;;4.90;;
57325;SDS011;43161;50.950;18.224;2022-10-31T14:02:24;17.60;;;5.40;;
57325;SDS011;43161;50.950;18.224;2022-10-31T14:04:54;13.90;;;5.60;;
57325;SDS011;43161;50.950;18.224;2022-10-31T14:07:25;14.00;;;5.30;;
57325;SDS011;43161;50.950;18.224;2022-10-31T14:09:54;17.20;;;5.00;;
57325;SDS011;43161;50.950;18.224;2022-10-31T14:12:31;18.50;;;5.60;;
57325;SDS011;43161;50.950;18.224;2022-10-31T14:15:20;17.40;;;5.10;;
57325;SDS011;43161;50.950;18.224;2022-10-31T14:17:53;16.40;;;5.30;;
57325;SDS011;43161;50.950;18.224;2022-10-31T14:20:22;15.20;;;4.80;;
57325;SDS011;43161;50.950;18.224;2022-10-31T14:22:51;14.80;;;4.30;;
57325;SDS011;43161;50.950;18.224;2022-10-31T14:28:03;15.60;;;4.90;;
57325;SDS011;43161;50.950;18.224;2022-10-31T14:33:47;16.20;;;5.10;;
57325;SDS011;43161;50.950;18.224;2022-10-31T14:36:17;16.40;;;5.80;;
57325;SDS011;43161;50.950;18.224;2022-10-31T14:52:53;16.70;;;6.20;;
57325;SDS011;43161;50.950;18.224;2022-10-31T14:55:21;21.70;;;6.20;;
57325;SDS011;43161;50.950;18.224;2022-10-31T14:57:50;24.40;;;7.30;;
57325;SDS011;43161;50.950;18.224;2022-10-31T15:00:20;18.50;;;7.50;;
57325;SDS011;43161;50.950;18.224;2022-10-31T15:02:52;22.00;;;7.70;;
57325;SDS011;43161;50.950;18.224;2022-10-31T15:05:29;29.00;;;9.70;;
57325;SDS011;43161;50.950;18.224;2022-10-31T15:07:57;22.50;;;8.30;;
57325;SDS011;43161;50.950;18.224;2022-10-31T15:10:25;19.40;;;7.20;;
57325;SDS011;43161;50.950;18.224;2022-10-31T15:12:54;24.80;;;7.60;;
57325;SDS011;43161;50.950;18.224;2022-10-31T15:15:21;23.90;;;8.50;;
57325;SDS011;43161;50.950;18.224;2022-10-31T15:17:51;22.20;;;7.80;;
57325;SDS011;43161;50.950;18.224;2022-10-31T15:20:20;23.90;;;7.80;;
57325;SDS011;43161;50.950;18.224;2022-10-31T15:22:48;21.90;;;8.20;;
57325;SDS011;43161;50.950;18.224;2022-10-31T15:25:22;19.90;;;7.30;;
57325;SDS011;43161;50.950;18.224;2022-10-31T15:27:49;23.70;;;8.40;;
57325;SDS011;43161;50.950;18.224;2022-10-31T15:30:17;22.00;;;8.20;;
57325;SDS011;43161;50.950;18.224;2022-10-31T15:32:47;24.70;;;9.80;;
57325;SDS011;43161;50.950;18.224;2022-10-31T15:35:22;24.30;;;9.50;;
57325;SDS011;43161;50.950;18.224;2022-10-31T15:37:51;26.50;;;10.30;;
57325;SDS011;43161;50.950;18.224;2022-10-31T15:40:19;26.40;;;9.30;;
57325;SDS011;43161;50.950;18.224;2022-10-31T15:42:50;24.70;;;10.40;;
57325;SDS011;43161;50.950;18.224;2022-10-31T15:45:22;27.40;;;10.20;;
57325;SDS011;43161;50.950;18.224;2022-10-31T15:47:59;28.80;;;12.60;;
57325;SDS011;43161;50.950;18.224;2022-10-31T15:53:25;23.50;;;11.70;;
57325;SDS011;43161;50.950;18.224;2022-10-31T15:55:59;26.80;;;13.20;;
57325;SDS011;43161;50.950;18.224;2022-10-31T15:58:26;27.90;;;11.80;;
57325;SDS011;43161;50.950;18.224;2022-10-31T16:06:35;32.80;;;15.00;;
57325;SDS011;43161;50.950;18.224;2022-10-31T16:09:01;27.50;;;12.30;;
57325;SDS011;43161;50.950;18.224;2022-10-31T16:11:31;30.30;;;11.40;;
57325;SDS011;43161;50.950;18.224;2022-10-31T16:14:05;35.10;;;13.70;;
57325;SDS011;43161;50.950;18.224;2022-10-31T16:16:33;32.00;;;12.60;;
57325;SDS011;43161;50.950;18.224;2022-10-31T16:19:11;30.40;;;12.60;;
57325;SDS011;43161;50.950;18.224;2022-10-31T16:21:40;25.00;;;12.70;;
57325;SDS011;43161;50.950;18.224;2022-10-31T16:24:13;24.30;;;10.90;;
57325;SDS011;43161;50.950;18.224;2022-10-31T16:26:46;20.20;;;8.30;;
57325;SDS011;43161;50.950;18.224;2022-10-31T16:35:17;19.40;;;7.90;;
57325;SDS011;43161;50.950;18.224;2022-10-31T16:37:51;20.80;;;8.30;;
57325;SDS011;43161;50.950;18.224;2022-10-31T16:40:16;20.50;;;8.20;;
57325;SDS011;43161;50.950;18.224;2022-10-31T16:42:43;19.50;;;7.90;;
57325;SDS011;43161;50.950;18.224;2022-10-31T16:45:14;26.00;;;12.00;;
57325;SDS011;43161;50.950;18.224;2022-10-31T16:47:50;27.20;;;12.00;;
57325;SDS011;43161;50.950;18.224;2022-10-31T16:53:00;27.30;;;13.10;;
57325;SDS011;43161;50.950;18.224;2022-10-31T16:55:25;33.70;;;16.80;;
57325;SDS011;43161;50.950;18.224;2022-10-31T16:57:52;50.90;;;23.70;;
57325;SDS011;43161;50.950;18.224;2022-10-31T17:00:19;48.20;;;24.50;;
57325;SDS011;43161;50.950;18.224;2022-10-31T17:02:53;44.50;;;23.20;;
57325;SDS011;43161;50.950;18.224;2022-10-31T17:05:22;58.00;;;27.10;;
57325;SDS011;43161;50.950;18.224;2022-10-31T17:07:55;50.10;;;27.60;;
57325;SDS011;43161;50.950;18.224;2022-10-31T17:10:22;45.20;;;25.30;;
57325;SDS011;43161;50.950;18.224;2022-10-31T17:12:47;44.10;;;21.60;;
57325;SDS011;43161;50.950;18.224;2022-10-31T17:15:24;42.00;;;19.00;;
57325;SDS011;43161;50.950;18.224;2022-10-31T17:17:51;37.40;;;16.60;;
57325;SDS011;43161;50.950;18.224;2022-10-31T17:20:18;37.40;;;18.20;;
57325;SDS011;43161;50.950;18.224;2022-10-31T17:22:44;36.50;;;18.20;;